createdAt,value
2023-02-25T00:01:07.161Z,87.36
2023-02-25T00:03:34.656Z,87.11
2023-02-25T00:06:05.721Z,87.03
2023-02-25T00:08:32.570Z,87.36
2023-02-25T00:11:04.630Z,87.77
2023-02-25T00:13:33.115Z,87.68
2023-02-25T00:16:03.220Z,87.64
2023-02-25T00:18:31.005Z,87.39
2023-02-25T00:20:58.219Z,87.76
2023-02-25T00:23:25.425Z,87.97
2023-02-25T00:26:03.354Z,87.81
2023-02-25T00:28:29.896Z,87.98
2023-02-25T00:30:56.619Z,88.07
2023-02-25T00:33:23.300Z,88.02
2023-02-25T00:35:51.343Z,87.83
2023-02-25T00:38:18.003Z,88.45
2023-02-25T00:40:46.652Z,89.08
2023-02-25T00:43:13.265Z,89.44
2023-02-25T00:45:42.746Z,89.76
2023-02-25T00:48:09.659Z,90.07
2023-02-25T00:50:36.727Z,89.90
2023-02-25T00:53:03.394Z,90.50
2023-02-25T00:55:33.703Z,90.88
2023-02-25T00:58:01.745Z,91.03
2023-02-25T01:00:30.575Z,90.79
2023-02-25T01:02:58.832Z,91.10
2023-02-25T01:05:25.779Z,91.14
2023-02-25T01:07:52.932Z,91.10
2023-02-25T01:10:19.803Z,91.38
2023-02-25T01:12:46.731Z,91.49
2023-02-25T01:15:15.133Z,91.32
2023-02-25T01:17:41.719Z,91.71
2023-02-25T01:20:12.445Z,91.43
2023-02-25T01:22:41.770Z,91.85
2023-02-25T01:25:12.973Z,92.49
2023-02-25T01:27:40.007Z,92.35
2023-02-25T01:30:06.963Z,92.39
2023-02-25T01:32:33.796Z,92.32
2023-02-25T01:35:02.209Z,92.09
2023-02-25T01:37:30.048Z,92.36
2023-02-25T01:39:57.120Z,92.21
2023-02-25T01:42:24.123Z,92.06
2023-02-25T01:45:21.540Z,92.28
2023-02-25T01:47:53.882Z,91.17
2023-02-25T01:50:25.466Z,91.15
2023-02-25T01:52:53.637Z,91.20
2023-02-25T01:55:20.390Z,91.00
2023-02-25T01:57:47.155Z,90.63
2023-02-25T02:00:19.460Z,90.07
2023-02-25T02:02:49.506Z,89.92
2023-02-25T02:05:16.905Z,89.67
2023-02-25T02:07:43.738Z,89.00
2023-02-25T02:10:11.012Z,87.96
2023-02-25T02:12:43.927Z,88.01
2023-02-25T02:15:13.826Z,86.96
2023-02-25T02:17:53.993Z,86.24
2023-02-25T02:20:25.773Z,85.78
2023-02-25T02:23:34.082Z,84.79
2023-02-25T02:26:59.794Z,85.14
2023-02-25T02:29:42.099Z,84.25
2023-02-25T02:32:21.046Z,84.64
2023-02-25T02:34:56.800Z,84.07
2023-02-25T02:37:30.851Z,82.56
2023-02-25T02:40:38.559Z,82.57
2023-02-25T02:43:11.489Z,81.59
2023-02-25T02:45:49.569Z,81.92
2023-02-25T02:48:24.767Z,81.81
2023-02-25T02:51:16.128Z,82.20
2023-02-25T02:53:53.212Z,80.96
2023-02-25T02:56:22.714Z,81.05
2023-02-25T02:59:15.220Z,81.32
2023-02-25T03:01:50.436Z,81.93
2023-02-25T03:04:23.757Z,82.30
2023-02-25T03:06:55.514Z,81.17
2023-02-25T03:09:33.434Z,80.25
2023-02-25T03:12:00.143Z,80.87
2023-02-25T03:14:27.100Z,81.09
2023-02-25T03:17:07.476Z,80.33
2023-02-25T03:19:44.103Z,79.88
2023-02-25T03:22:13.024Z,80.15
2023-02-25T03:24:50.081Z,81.47
2023-02-25T03:27:25.983Z,80.22
2023-02-25T03:30:05.290Z,79.96
2023-02-25T03:32:37.357Z,79.81
2023-02-25T03:35:07.180Z,80.72
2023-02-25T03:37:37.287Z,81.51
2023-02-25T03:40:11.255Z,81.59
2023-02-25T03:42:45.232Z,81.29
2023-02-25T03:45:15.145Z,81.04
2023-02-25T03:47:42.828Z,80.78
2023-02-25T03:50:14.817Z,80.79
2023-02-25T03:52:44.901Z,80.61
2023-02-25T03:55:31.725Z,81.19
2023-02-25T03:57:58.532Z,81.24
2023-02-25T04:00:31.637Z,81.36
2023-02-25T04:02:58.971Z,81.42
2023-02-25T04:05:27.637Z,82.05
2023-02-25T04:07:55.350Z,82.03
2023-02-25T04:10:22.706Z,82.16
2023-02-25T04:12:52.186Z,82.50
2023-02-25T04:15:19.649Z,82.88
2023-02-25T04:17:47.227Z,83.04
2023-02-25T04:20:16.381Z,83.58
2023-02-25T04:22:43.607Z,83.39
2023-02-25T04:25:10.593Z,83.61
2023-02-25T04:27:37.108Z,84.02
2023-02-25T04:30:04.801Z,84.33
2023-02-25T04:32:32.245Z,84.26
2023-02-25T04:35:03.136Z,84.56
2023-02-25T04:37:30.909Z,84.34
2023-02-25T04:39:57.696Z,84.31
2023-02-25T04:42:24.482Z,84.87
2023-02-25T04:44:51.002Z,85.00
2023-02-25T04:47:19.043Z,84.90
2023-02-25T04:49:45.766Z,85.02
2023-02-25T04:52:15.725Z,85.38
2023-02-25T04:54:42.696Z,85.46
2023-02-25T04:57:11.438Z,85.42
2023-02-25T04:59:38.622Z,85.54
2023-02-25T05:02:06.106Z,85.48
2023-02-25T05:04:33.303Z,85.75
2023-02-25T05:07:00.552Z,85.66
2023-02-25T05:09:27.149Z,85.29
2023-02-25T05:11:53.818Z,85.53
2023-02-25T05:14:20.340Z,85.56
2023-02-25T05:16:46.922Z,85.77
2023-02-25T05:19:22.297Z,85.28
2023-02-25T05:21:53.076Z,85.28
2023-02-25T05:24:20.432Z,85.32
2023-02-25T05:26:47.085Z,85.13
2023-02-25T05:29:13.720Z,85.05
2023-02-25T05:31:40.694Z,84.74
2023-02-25T05:34:07.258Z,84.60
2023-02-25T05:36:33.902Z,84.31
2023-02-25T05:39:02.803Z,84.90
2023-02-25T05:41:30.379Z,85.27
2023-02-25T05:43:58.138Z,86.10
2023-02-25T05:46:26.829Z,86.13
2023-02-25T05:48:54.116Z,86.13
2023-02-25T05:51:23.371Z,85.48
2023-02-25T05:53:51.922Z,85.49
2023-02-25T05:56:22.109Z,85.81
2023-02-25T05:58:49.389Z,85.90
2023-02-25T06:01:18.383Z,85.04
2023-02-25T06:03:46.651Z,85.07
2023-02-25T06:06:15.526Z,85.15
2023-02-25T06:08:45.980Z,84.83
2023-02-25T06:11:17.110Z,84.56
2023-02-25T06:13:43.896Z,84.54
2023-02-25T06:16:10.651Z,83.70
2023-02-25T06:18:37.218Z,84.56
2023-02-25T06:21:09.268Z,84.44
2023-02-25T06:23:37.595Z,85.40
2023-02-25T06:26:05.761Z,85.38
2023-02-25T06:28:32.722Z,85.63
2023-02-25T06:30:59.562Z,86.25
2023-02-25T06:33:26.452Z,87.13
2023-02-25T06:35:54.747Z,88.09
2023-02-25T06:38:21.686Z,88.81
2023-02-25T06:40:49.625Z,89.26
2023-02-25T06:43:19.643Z,89.70
2023-02-25T06:45:46.375Z,89.67
2023-02-25T06:48:12.974Z,89.31
2023-02-25T06:50:41.050Z,88.92
2023-02-25T06:53:08.839Z,88.51
2023-02-25T06:55:38.036Z,88.82
2023-02-25T06:58:04.784Z,88.17
2023-02-25T07:00:31.644Z,88.56
2023-02-25T07:02:58.153Z,88.67
2023-02-25T07:05:24.757Z,88.64
2023-02-25T07:07:51.568Z,88.79
2023-02-25T07:10:18.221Z,88.77
2023-02-25T07:12:45.392Z,89.04
2023-02-25T07:15:11.886Z,88.64
2023-02-25T07:17:38.658Z,88.76
2023-02-25T07:20:05.573Z,88.06
2023-02-25T07:22:32.071Z,87.95
2023-02-25T07:25:00.570Z,87.45
2023-02-25T07:27:27.260Z,87.50
2023-02-25T07:29:54.923Z,87.50
2023-02-25T07:32:24.704Z,87.29
2023-02-25T07:34:51.530Z,87.20
2023-02-25T07:37:18.114Z,87.16
2023-02-25T07:39:47.369Z,87.22
2023-02-25T07:42:15.127Z,87.57
2023-02-25T07:44:47.070Z,87.68
2023-02-25T07:47:13.699Z,87.25
2023-02-25T07:49:40.369Z,87.15
2023-02-25T07:52:09.888Z,86.83
2023-02-25T07:54:46.218Z,87.73
2023-02-25T07:57:13.209Z,88.25
2023-02-25T07:59:39.926Z,89.09
2023-02-25T08:02:10.334Z,91.06
2023-02-25T08:04:37.430Z,91.54
2023-02-25T08:07:04.059Z,91.66
2023-02-25T08:09:34.793Z,92.51
2023-02-25T08:12:01.684Z,92.88
2023-02-25T08:14:29.359Z,93.56
2023-02-25T08:16:57.429Z,93.37
2023-02-25T08:19:26.459Z,93.50
2023-02-25T08:21:54.833Z,94.04
2023-02-25T08:24:22.927Z,94.13
2023-02-25T08:26:49.842Z,94.08
2023-02-25T08:29:16.374Z,94.19
2023-02-25T08:31:43.067Z,93.68
2023-02-25T08:34:10.589Z,93.57
2023-02-25T08:36:37.197Z,93.70
2023-02-25T08:39:04.234Z,94.44
2023-02-25T08:41:30.789Z,94.60
2023-02-25T08:43:59.053Z,94.59
2023-02-25T08:46:28.490Z,94.79
2023-02-25T08:48:55.459Z,94.67
2023-02-25T08:51:38.555Z,94.97
2023-02-25T08:54:11.960Z,95.07
2023-02-25T08:56:44.276Z,95.06
2023-02-25T08:59:13.252Z,95.58
2023-02-25T09:01:46.380Z,95.08
2023-02-25T09:04:22.814Z,95.23
2023-02-25T09:06:51.918Z,95.40
2023-02-25T09:09:20.271Z,95.46
2023-02-25T09:11:48.064Z,95.70
2023-02-25T09:14:15.545Z,95.76
2023-02-25T09:16:45.575Z,95.52
2023-02-25T09:19:15.666Z,95.15
2023-02-25T09:21:42.716Z,94.98
2023-02-25T09:24:09.824Z,94.25
2023-02-25T09:26:36.527Z,94.24
2023-02-25T09:29:04.837Z,94.29
2023-02-25T09:31:33.603Z,93.30
2023-02-25T09:34:04.664Z,92.94
2023-02-25T09:36:31.593Z,91.98
2023-02-25T09:38:58.695Z,91.46
2023-02-25T09:41:37.962Z,89.75
2023-02-25T09:44:11.882Z,89.61
2023-02-25T09:46:45.941Z,84.48
2023-02-25T09:49:21.984Z,80.26
2023-02-25T09:51:59.585Z,79.35
2023-02-25T09:54:40.668Z,78.57
2023-02-25T09:57:10.775Z,78.93
2023-02-25T09:59:37.815Z,78.76
2023-02-25T10:02:36.913Z,79.15
2023-02-25T10:05:28.694Z,79.68
2023-02-25T10:08:07.455Z,79.08
2023-02-25T10:11:05.683Z,79.77
2023-02-25T10:14:00.155Z,81.33
2023-02-25T10:16:43.566Z,81.77
2023-02-25T10:19:37.139Z,81.76
2023-02-25T10:22:09.952Z,80.01
2023-02-25T10:24:46.635Z,81.13
2023-02-25T10:27:41.848Z,80.88
2023-02-25T10:30:25.007Z,80.50
2023-02-25T10:32:53.201Z,81.52
2023-02-25T10:35:32.483Z,81.21
2023-02-25T10:37:59.115Z,80.63
2023-02-25T10:40:29.245Z,80.24
2023-02-25T10:43:00.648Z,78.89
2023-02-25T10:45:31.258Z,78.53
2023-02-25T10:48:12.855Z,79.11
2023-02-25T10:50:46.035Z,77.59
2023-02-25T10:53:16.644Z,77.62
2023-02-25T10:55:43.456Z,76.64
2023-02-25T10:58:34.587Z,76.44
2023-02-25T11:01:06.872Z,74.98
2023-02-25T11:03:41.761Z,74.88
2023-02-25T11:06:18.161Z,76.51
2023-02-25T11:08:46.547Z,75.65
2023-02-25T11:11:17.439Z,76.92
2023-02-25T11:13:44.581Z,77.06
2023-02-25T11:16:13.499Z,75.72
2023-02-25T11:18:41.294Z,74.63
2023-02-25T11:21:10.642Z,72.71
2023-02-25T11:23:43.428Z,71.18
2023-02-25T11:26:32.933Z,73.74
2023-02-25T11:29:07.816Z,73.89
2023-02-25T11:31:40.564Z,73.04
2023-02-25T11:34:34.170Z,72.18
2023-02-25T11:37:45.340Z,73.43
2023-02-25T11:40:29.490Z,74.40
2023-02-25T11:43:05.409Z,72.48
2023-02-25T11:45:35.176Z,73.08
2023-02-25T11:48:16.548Z,72.27
2023-02-25T11:50:43.079Z,73.99
2023-02-25T11:53:27.753Z,71.32
2023-02-25T11:56:28.422Z,70.63
2023-02-25T11:59:18.123Z,69.26
2023-02-25T12:02:03.580Z,70.01
2023-02-25T12:04:48.601Z,70.07
2023-02-25T12:07:21.180Z,70.16
2023-02-25T12:10:18.804Z,70.99
2023-02-25T12:13:04.398Z,69.91
2023-02-25T12:16:00.816Z,69.34
2023-02-25T12:18:45.653Z,68.57
2023-02-25T12:21:39.920Z,69.18
2023-02-25T12:24:40.389Z,68.28
2023-02-25T12:27:22.340Z,68.16
2023-02-25T12:30:08.504Z,69.49
2023-02-25T12:32:46.980Z,68.80
2023-02-25T12:35:21.374Z,67.32
2023-02-25T12:38:19.863Z,66.25
2023-02-25T12:40:58.927Z,68.10
2023-02-25T12:43:40.204Z,69.55
2023-02-25T12:46:35.843Z,66.50
2023-02-25T12:49:38.158Z,66.01
2023-02-25T12:52:17.597Z,64.85
2023-02-25T12:55:10.557Z,67.43
2023-02-25T12:57:40.168Z,68.05
2023-02-25T13:00:28.936Z,66.62
2023-02-25T13:03:33.373Z,68.68
2023-02-25T13:06:24.960Z,67.91
2023-02-25T13:09:10.923Z,67.59
2023-02-25T13:12:11.425Z,67.18
2023-02-25T13:14:55.668Z,67.23
2023-02-25T13:17:46.368Z,66.63
2023-02-25T13:20:44.085Z,66.18
2023-02-25T13:23:31.162Z,65.18
2023-02-25T13:26:03.988Z,64.98
2023-02-25T13:28:58.483Z,64.24
2023-02-25T13:31:49.593Z,66.65
2023-02-25T13:34:30.069Z,64.29
2023-02-25T13:37:17.120Z,63.69
2023-02-25T13:40:06.456Z,63.55
2023-02-25T13:42:53.948Z,64.04
2023-02-25T13:45:48.583Z,66.35
2023-02-25T13:48:15.126Z,64.82
2023-02-25T13:51:04.339Z,64.37
2023-02-25T13:53:52.970Z,65.16
2023-02-25T13:56:43.659Z,64.66
2023-02-25T13:59:45.642Z,63.27
2023-02-25T14:02:36.379Z,63.04
2023-02-25T14:05:23.940Z,64.66
2023-02-25T14:08:29.907Z,63.39
2023-02-25T14:11:29.120Z,61.82
2023-02-25T14:14:33.735Z,62.16
2023-02-25T14:17:40.227Z,61.86
2023-02-25T14:20:25.063Z,61.90
2023-02-25T14:23:11.671Z,61.94
2023-02-25T14:25:58.211Z,63.07
2023-02-25T14:28:46.409Z,64.08
2023-02-25T14:31:40.749Z,63.45
2023-02-25T14:34:26.981Z,62.25
2023-02-25T14:37:12.343Z,61.50
2023-02-25T14:39:47.579Z,61.92
2023-02-25T14:42:56.705Z,61.60
2023-02-25T14:45:39.791Z,61.23
2023-02-25T14:48:12.440Z,60.50
2023-02-25T14:50:48.984Z,59.30
2023-02-25T14:53:38.858Z,60.93
2023-02-25T14:56:37.244Z,60.43
2023-02-25T14:59:22.465Z,61.45
2023-02-25T15:02:02.692Z,61.25
2023-02-25T15:04:56.100Z,59.96
2023-02-25T15:07:47.832Z,60.43
2023-02-25T15:10:46.970Z,60.01
2023-02-25T15:13:37.612Z,62.95
2023-02-25T15:16:07.124Z,63.16
2023-02-25T15:18:45.658Z,63.26
2023-02-25T15:21:41.021Z,62.56
2023-02-25T15:24:11.360Z,63.63
2023-02-25T15:26:42.263Z,63.74
2023-02-25T15:29:37.644Z,60.87
2023-02-25T15:32:24.394Z,59.81
2023-02-25T15:35:01.534Z,58.93
2023-02-25T15:37:31.922Z,58.27
2023-02-25T15:40:15.126Z,59.14
2023-02-25T15:42:57.101Z,60.44
2023-02-25T15:45:27.362Z,61.20
2023-02-25T15:48:17.546Z,61.66
2023-02-25T15:50:44.117Z,61.80
2023-02-25T15:53:10.961Z,63.59
2023-02-25T15:55:44.471Z,64.16
2023-02-25T15:58:23.376Z,65.17
2023-02-25T16:01:01.499Z,64.00
2023-02-25T16:03:38.300Z,63.81
2023-02-25T16:06:07.530Z,64.86
2023-02-25T16:08:51.624Z,64.72
2023-02-25T16:11:25.278Z,64.90
2023-02-25T16:13:53.616Z,64.56
2023-02-25T16:16:22.914Z,65.15
2023-02-25T16:18:52.132Z,65.92
2023-02-25T16:21:24.736Z,65.96
2023-02-25T16:23:52.227Z,66.54
2023-02-25T16:26:41.676Z,67.92
2023-02-25T16:29:30.704Z,68.57
2023-02-25T16:32:03.315Z,68.51
2023-02-25T16:34:53.082Z,68.52
2023-02-25T16:37:27.636Z,69.30
2023-02-25T16:39:54.568Z,69.56
2023-02-25T16:42:21.935Z,69.84
2023-02-25T16:44:59.367Z,70.43
2023-02-25T16:47:27.573Z,70.08
2023-02-25T16:49:56.335Z,69.82
2023-02-25T16:52:53.182Z,70.63
2023-02-25T16:55:30.307Z,70.34
2023-02-25T16:58:02.739Z,70.74
2023-02-25T17:00:29.768Z,70.46
2023-02-25T17:02:59.274Z,71.02
2023-02-25T17:05:28.984Z,71.50
2023-02-25T17:08:01.211Z,71.75
2023-02-25T17:10:37.410Z,72.04
2023-02-25T17:13:04.502Z,72.16
2023-02-25T17:15:35.000Z,72.18
2023-02-25T17:18:19.727Z,72.80
2023-02-25T17:20:48.157Z,73.36
2023-02-25T17:23:15.940Z,73.09
2023-02-25T17:25:47.022Z,73.53
2023-02-25T17:28:21.846Z,73.57
2023-02-25T17:30:49.586Z,72.87
2023-02-25T17:33:22.247Z,73.27
2023-02-25T17:35:53.317Z,72.85
2023-02-25T17:38:22.785Z,68.95
2023-02-25T17:40:51.174Z,70.85
2023-02-25T17:43:21.815Z,72.16
2023-02-25T17:45:57.593Z,72.22
2023-02-25T17:48:31.061Z,72.97
2023-02-25T17:51:07.912Z,72.71
2023-02-25T17:54:02.608Z,72.54
2023-02-25T17:56:34.426Z,72.53
2023-02-25T17:59:06.071Z,73.06
2023-02-25T18:01:55.692Z,73.03
2023-02-25T18:04:27.376Z,72.71
2023-02-25T18:06:55.506Z,73.07
2023-02-25T18:09:39.793Z,73.17
2023-02-25T18:12:17.412Z,73.22
2023-02-25T18:14:46.328Z,72.34
2023-02-25T18:17:33.248Z,71.73
2023-02-25T18:20:06.764Z,71.19
2023-02-25T18:22:37.740Z,71.90
2023-02-25T18:25:26.889Z,71.30
2023-02-25T18:27:55.062Z,71.77
2023-02-25T18:30:24.707Z,72.22
2023-02-25T18:32:51.808Z,72.12
2023-02-25T18:35:18.483Z,71.95
2023-02-25T18:37:49.715Z,72.45
2023-02-25T18:40:22.098Z,72.70
2023-02-25T18:42:50.116Z,73.39
2023-02-25T18:45:19.415Z,73.43
2023-02-25T18:47:46.075Z,72.72
2023-02-25T18:50:13.630Z,72.70
2023-02-25T18:52:41.459Z,72.75
2023-02-25T18:55:14.670Z,72.83
2023-02-25T18:57:43.389Z,71.55
2023-02-25T19:00:11.995Z,71.18
2023-02-25T19:02:49.084Z,70.78
2023-02-25T19:05:17.641Z,71.47
2023-02-25T19:07:45.237Z,72.17
2023-02-25T19:10:16.842Z,73.00
2023-02-25T19:12:48.488Z,73.81
2023-02-25T19:15:18.251Z,73.91
2023-02-25T19:17:46.412Z,75.08
2023-02-25T19:20:14.894Z,74.77
2023-02-25T19:22:47.275Z,74.48
2023-02-25T19:25:19.689Z,75.02
2023-02-25T19:27:46.459Z,75.11
2023-02-25T19:30:15.556Z,75.07
2023-02-25T19:32:42.298Z,75.54
2023-02-25T19:35:10.500Z,75.93
2023-02-25T19:37:39.437Z,76.07
2023-02-25T19:40:12.447Z,75.42
2023-02-25T19:42:40.188Z,75.60
2023-02-25T19:45:09.861Z,75.43
2023-02-25T19:47:36.698Z,75.35
2023-02-25T19:50:04.442Z,75.61
2023-02-25T19:52:31.010Z,75.55
2023-02-25T19:54:57.698Z,76.11
2023-02-25T19:57:24.993Z,76.30
2023-02-25T19:59:51.990Z,75.94
2023-02-25T20:02:18.653Z,76.78
2023-02-25T20:04:45.385Z,76.78
2023-02-25T20:07:12.033Z,76.96
2023-02-25T20:09:38.619Z,76.63
2023-02-25T20:12:05.795Z,76.61
2023-02-25T20:14:33.019Z,76.71
2023-02-25T20:17:01.011Z,76.78
2023-02-25T20:19:32.418Z,76.67
2023-02-25T20:22:04.041Z,76.70
2023-02-25T20:24:30.868Z,76.89
2023-02-25T20:26:57.768Z,76.83
2023-02-25T20:29:24.600Z,76.75
2023-02-25T20:31:51.411Z,76.87
2023-02-25T20:34:21.318Z,77.06
2023-02-25T20:37:07.294Z,76.84
2023-02-25T20:39:36.773Z,76.97
2023-02-25T20:42:14.052Z,78.86
2023-02-25T20:44:41.348Z,81.27
2023-02-25T20:47:15.334Z,82.29
2023-02-25T20:49:42.304Z,83.46
2023-02-25T20:52:11.255Z,83.47
2023-02-25T20:54:38.077Z,84.49
2023-02-25T20:57:04.969Z,84.48
2023-02-25T20:59:31.789Z,84.70
2023-02-25T21:02:00.161Z,84.85
2023-02-25T21:04:27.062Z,84.08
2023-02-25T21:06:53.667Z,83.71
2023-02-25T21:09:20.465Z,84.10
2023-02-25T21:11:47.540Z,83.49
2023-02-25T21:14:16.605Z,84.79
2023-02-25T21:16:43.308Z,84.31
2023-02-25T21:19:10.048Z,84.53
2023-02-25T21:21:39.745Z,85.20
2023-02-25T21:24:10.304Z,84.71
2023-02-25T21:26:39.257Z,84.31
2023-02-25T21:29:07.347Z,85.05
2023-02-25T21:31:34.349Z,84.94
2023-02-25T21:34:02.086Z,85.35
2023-02-25T21:36:31.173Z,85.23
2023-02-25T21:38:57.736Z,85.00
2023-02-25T21:41:24.333Z,85.02
2023-02-25T21:43:52.430Z,85.74
2023-02-25T21:46:19.681Z,85.46
2023-02-25T21:48:50.593Z,85.49
2023-02-25T21:51:20.935Z,85.31
2023-02-25T21:53:47.604Z,85.48
2023-02-25T21:56:16.813Z,85.38
2023-02-25T21:58:44.356Z,85.53
2023-02-25T22:01:15.652Z,85.91
2023-02-25T22:03:42.915Z,85.83
2023-02-25T22:06:09.925Z,86.39
2023-02-25T22:08:39.038Z,85.86
2023-02-25T22:11:10.425Z,85.65
2023-02-25T22:13:36.967Z,85.79
2023-02-25T22:16:04.124Z,85.65
2023-02-25T22:18:31.441Z,86.09
2023-02-25T22:21:11.765Z,85.92
2023-02-25T22:23:39.679Z,86.20
2023-02-25T22:26:12.012Z,85.68
2023-02-25T22:28:38.716Z,85.92
2023-02-25T22:31:06.046Z,85.53
2023-02-25T22:33:33.279Z,85.12
2023-02-25T22:36:05.087Z,84.74
2023-02-25T22:38:34.027Z,84.46
2023-02-25T22:41:04.672Z,84.35
2023-02-25T22:43:33.532Z,84.02
2023-02-25T22:46:13.933Z,84.53
2023-02-25T22:48:42.345Z,84.23
2023-02-25T22:51:09.652Z,83.88
2023-02-25T22:53:37.477Z,84.34
2023-02-25T22:56:07.008Z,83.76
2023-02-25T22:58:34.825Z,83.62
2023-02-25T23:01:01.306Z,83.57
2023-02-25T23:03:28.029Z,83.51
2023-02-25T23:05:55.050Z,83.85
2023-02-25T23:08:23.914Z,83.89
2023-02-25T23:10:50.685Z,83.86
2023-02-25T23:13:17.304Z,83.83
2023-02-25T23:15:45.601Z,83.81
2023-02-25T23:18:12.272Z,84.15
2023-02-25T23:20:39.151Z,84.29
2023-02-25T23:23:07.348Z,84.12
2023-02-25T23:25:37.748Z,84.26
2023-02-25T23:28:06.193Z,84.63
2023-02-25T23:30:32.960Z,84.74
2023-02-25T23:33:00.223Z,84.55
2023-02-25T23:35:26.856Z,84.22
2023-02-25T23:37:53.475Z,84.64
2023-02-25T23:40:20.361Z,84.55
2023-02-25T23:42:46.956Z,84.60
2023-02-25T23:45:14.998Z,84.42
2023-02-25T23:47:45.338Z,84.52
2023-02-25T23:50:15.708Z,84.50
2023-02-25T23:52:43.925Z,84.29
2023-02-25T23:55:11.805Z,84.29
2023-02-25T23:57:39.202Z,84.48
